KCMH/CMH METAR and TAF weather

Enter ICAO airport designator
Station Type Date Time Source
KCMH METAR 2021/07/26 14:51 UTC NOAA

KCMH 261451Z 36009KT 10SM FEW035 FEW110 SCT250 28/19 A3001 RMK AO2 SLP152 T02830194 51005


Station Type Date Time Source
KCMH Decoded METAR 2021/07/26 14:51 UTC NOAA

PORT COLUMBUS INTERNATIONAL AIRPORT, OH, United States (KCMH) 40-00N 82-53W 247M
Jul 26, 2021 - 10:51 AM EDT / 2021.07.26 1451 UTC
Wind: from the N (360 degrees) at 10 MPH (9 KT):0
Visibility: 10 mile(s):0
Sky conditions: partly cloudy
Temperature: 82.9 F (28.3 C)
Dew Point: 66.9 F (19.4 C)
Relative Humidity: 58%
Pressure (altimeter): 30.01 in. Hg (1016 hPa)
Pressure tendency: 0.01 inches (0.5 hPa) higher than three hours ago
ob: KCMH 261451Z 36009KT 10SM FEW035 FEW110 SCT250 28/19 A3001 RMK AO2 SLP152 T02830194 51005
cycle: 15

Station Type Date Time Source
KCMH TAF 2021/07/26 12:33 UTC NOAA

TAF KCMH 261130Z 2612/2712 35003KT P6SM SCT250
FM261500 36007KT P6SM SKC
FM270000 03003KT P6SM SKC

Example: see airport list